Hovedside
METAR-TAF:

METAR-TAF

Lufthavner :

Västerås, Sverige

Västerås lufthavn

breddegrad: 59-35N, lengdegrad: 016-38E, høyde over havet: 6 m

Gjeldene værobservasjon

Denne rapporten ble laget for 25 minutter siden, klokken 07:20 UTC
Vind 6 kt fra Øst
Temperatur 2°C
Luftfuktighet 87%
Trykk 1028 hPa
Sikt 10 km eller mer
ingen skyer under 1500 m og ingen bygeskyer

METAR: ESOW 240720Z 08006KT CAVOK 02/00 Q1028

Tid: 09:45 (07:45 UTC)

Varsel

Denne rapporten ble laget for 2 timer og 15 minutter siden, klokken 05:30 UTC
Varsel gyldig fra 24. klokken 06 UTC til 24. klokken 15 UTC
Vind 8 kt fra Øst
Sikt 10 km eller mer
ingen skyer under 1500 m og ingen bygeskyer

TAF: ESOW 240530Z 2406/2415 08008KT CAVOK

Værobservasjoner og værvarsel for over 4000 flyplasser (METAR- og TAF-rapporter).

Tilgjengelige stasjoner er representert av de røde og gule prikkene på kartet.

Hold musepekeren over prikken for å se navnet på stasjonen.

Klikk så for å se værobservasjoner og -varsler.

For å forandre kartet kan du klikke på den grønne knappen med svart kryss for å zoome inn, på den grønne knappen med strek for å zoome ut, eller på de grønne pilene for å se tilstøtende kart.


METAR-TAF: